CheckWX is a tool to help pilots better visualize weather data.  It is not intended as a substitute for an official pre-flight weather briefing.

16:56:10 UTC

DTTF TAF
Gafsa Ksar International Airport
Gafsa, Tunisia
TAF DTTF 181500Z 1816/1901 06005KT 9999 FEW026 BECMG 1818/1820 15008KT

Jun-18@
16:00 UTC

Jun-18 @ 16:00 UTC

Jun-18@
18:00 UTC

Jun-18 @ 18:00 UTC

TAF DTTF 181500Z 1816/1901 06005KT 9999 FEW026
Wind
  • 060° at 5 KTS
Cloud Levels
  • Few at 2,600' AGL

Jun-18@
18:00 UTC

Jun-18 @ 18:00 UTC

Jun-19@
01:00 UTC

Jun-19 @ 01:00 UTC

BECMG 1818/1820 15008KT

Becoming

Becoming Conditions expected by Tue, Jun 18, 2019 @ 20:00 UTC

Wind
  • 150° at 8 KTS
Cloud Levels
  • Few at 2,600' AGL